Time;durP1;ratioP1;P1;durP2;ratioP2;P2;SDS_P1;SDS_P2;PMS_P1;PMS_P2;Temp;Humidity;BMP_temperature;BMP_pressure;BME280_temperature;BME280_humidity;BME280_pressure;Samples;Min_cycle;Max_cycle;Signal;HPM_P1;HPM_P2
2023/10/18 00:00:18;;;;;;;14.55;13.23;;;;;;;8.20;81.29;101129.44;5089415;28;20031;-65
2023/10/18 00:02:45;;;;;;;9.80;7.43;;;;;;;8.27;81.21;101115.94;5071478;28;20089;-64
2023/10/18 00:05:10;;;;;;;14.55;12.93;;;;;;;8.18;81.49;101122.53;5089989;28;20391;-64
2023/10/18 00:07:36;;;;;;;9.82;7.32;;;;;;;8.24;81.27;101111.63;5090768;28;20024;-64
2023/10/18 00:10:03;;;;;;;7.90;7.10;;;;;;;8.24;81.36;101118.72;5090282;28;20034;-64
2023/10/18 00:12:29;;;;;;;14.55;12.88;;;;;;;8.18;81.89;101119.88;5090760;28;20434;-64
2023/10/18 00:14:54;;;;;;;9.23;7.10;;;;;;;8.31;81.21;101122.78;5090521;28;20059;-64
2023/10/18 00:17:20;;;;;;;11.75;6.75;;;;;;;8.25;81.20;101102.75;5072036;28;20024;-65
2023/10/18 00:19:45;;;;;;;13.48;12.07;;;;;;;8.20;81.35;101110.03;5071504;28;20031;-64
2023/10/18 00:22:11;;;;;;;9.40;7.00;;;;;;;8.35;80.86;101116.38;5090529;28;20055;-64
2023/10/18 00:24:37;;;;;;;10.55;7.53;;;;;;;8.37;80.70;101118.03;5090479;28;20103;-64
2023/10/18 00:27:04;;;;;;;11.43;7.60;;;;;;;8.34;80.73;101115.53;5089780;28;20539;-64
2023/10/18 00:29:33;;;;;;;11.35;7.68;;;;;;;8.32;81.22;101109.44;5073018;28;20020;-64
2023/10/18 00:31:59;;;;;;;10.07;7.90;;;;;;;8.29;80.88;101106.09;5089381;28;20020;-64
2023/10/18 00:34:25;;;;;;;10.63;7.10;;;;;;;8.24;81.69;101116.06;5072548;28;20020;-64
2023/10/18 00:36:55;;;;;;;8.85;6.78;;;;;;;8.19;81.55;101114.50;5090261;28;20020;-64
2023/10/18 00:39:22;;;;;;;15.75;14.13;;;;;;;7.99;82.27;101111.94;5090427;28;20055;-64
2023/10/18 00:41:54;;;;;;;8.07;6.80;;;;;;;8.16;82.12;101106.69;5086072;28;20017;-64
2023/10/18 00:44:21;;;;;;;15.20;13.45;;;;;;;7.99;81.99;101105.81;5086798;28;20078;-64
2023/10/18 00:46:52;;;;;;;15.57;13.68;;;;;;;7.96;82.51;101107.66;5067146;28;20390;-64
2023/10/18 00:49:20;;;;;;;9.15;7.25;;;;;;;8.09;81.81;101102.66;5070471;28;20479;-65
2023/10/18 00:51:47;;;;;;;9.98;7.53;;;;;;;8.15;81.80;101102.34;5090071;28;20024;-64
2023/10/18 00:54:14;;;;;;;7.68;6.75;;;;;;;8.16;81.50;101097.91;5084890;28;20026;-65
2023/10/18 00:56:43;;;;;;;8.27;7.47;;;;;;;8.14;81.28;101094.44;5087014;28;20032;-64
2023/10/18 00:59:19;;;;;;;10.33;6.63;;;;;;;8.16;80.63;101085.50;5088035;28;20052;-65
2023/10/18 01:01:46;;;;;;;13.52;12.32;;;;;;;7.97;81.97;101082.03;5087819;28;20036;-64
2023/10/18 01:04:14;;;;;;;15.45;13.95;;;;;;;7.86;82.31;101073.75;5087740;28;20071;-64
2023/10/18 01:06:47;;;;;;;14.07;12.77;;;;;;;7.97;81.95;101072.31;5084403;28;20024;-64
2023/10/18 01:09:16;;;;;;;10.23;7.05;;;;;;;8.06;81.24;101068.34;5086330;28;20119;-64
2023/10/18 01:11:42;;;;;;;10.50;7.70;;;;;;;8.00;82.03;101068.66;5086232;28;20141;-64
2023/10/18 01:14:07;;;;;;;10.88;7.47;;;;;;;8.01;81.66;101053.63;5089884;28;20031;-64
2023/10/18 01:16:36;;;;;;;9.57;7.10;;;;;;;7.95;81.49;101052.97;5068741;28;20027;-64
2023/10/18 01:19:04;;;;;;;11.07;7.80;;;;;;;7.94;82.08;101048.63;5071705;28;20070;-64
2023/10/18 01:21:32;;;;;;;14.48;13.15;;;;;;;7.79;82.05;101051.13;5090715;28;20032;-64
2023/10/18 01:23:59;;;;;;;11.82;7.38;;;;;;;7.94;81.88;101058.34;5071995;28;20740;-65
2023/10/18 01:26:29;;;;;;;8.80;7.38;;;;;;;7.94;81.63;101042.44;5071170;28;20024;-64
2023/10/18 01:28:57;;;;;;;9.20;7.43;;;;;;;7.91;81.99;101047.91;5089065;28;20024;-64
2023/10/18 01:31:23;;;;;;;9.55;7.45;;;;;;;7.87;81.91;101049.00;5073048;28;20035;-64
2023/10/18 01:33:50;;;;;;;10.23;7.18;;;;;;;7.87;81.78;101038.41;5094109;28;20035;-64
2023/10/18 01:36:22;;;;;;;13.57;8.02;;;;;;;7.88;81.79;101035.69;5076050;28;20031;-64
2023/10/18 01:38:54;;;;;;;10.07;8.38;;;;;;;7.86;81.84;101034.91;5092248;28;20030;-64
2023/10/18 01:41:27;;;;;;;10.57;7.75;;;;;;;7.83;81.68;101028.91;5074991;28;20500;-64
2023/10/18 01:46:36;;;;;;;10.80;7.03;;;;;;;7.80;81.75;101013.16;5092706;28;20034;-64
2023/10/18 01:49:03;;;;;;;;;;;;;;;7.76;81.69;101012.44;5092161;28;20028;-65
2023/10/18 01:51:28;;;;;;;12.30;7.53;;;;;;;7.70;82.35;101016.22;5093179;28;20248;-64
2023/10/18 01:54:04;;;;;;;10.88;7.88;;;;;;;7.70;82.70;101010.94;5074887;28;20030;-64
2023/10/18 01:56:31;;;;;;;8.88;7.18;;;;;;;7.71;82.01;101003.88;5089167;28;20103;-64
2023/10/18 01:58:57;;;;;;;8.60;7.70;;;;;;;7.63;82.29;100995.44;5090482;28;20036;-64
2023/10/18 02:01:22;;;;;;;15.25;13.88;;;;;;;7.60;82.51;100991.16;5071261;28;20043;-64
2023/10/18 02:03:50;;;;;;;10.60;7.55;;;;;;;7.67;82.62;100986.41;5088620;28;20029;-64
2023/10/18 02:06:15;;;;;;;11.35;8.20;;;;;;;7.59;82.60;100986.81;5086638;28;20533;-64
2023/10/18 02:08:43;;;;;;;10.15;7.43;;;;;;;7.58;82.81;100989.50;5089923;28;20020;-64
2023/10/18 02:11:09;;;;;;;8.93;7.55;;;;;;;7.60;82.72;100985.84;5087389;28;20116;-64
2023/10/18 02:13:41;;;;;;;13.98;7.78;;;;;;;7.59;82.55;100983.28;5074623;28;20099;-64
2023/10/18 02:16:09;;;;;;;15.45;13.70;;;;;;;7.43;82.96;100975.22;5091974;28;20016;-64
2023/10/18 02:18:34;;;;;;;13.32;7.00;;;;;;;7.55;82.59;100979.06;5092338;28;20028;-65
2023/10/18 02:21:03;;;;;;;11.27;7.75;;;;;;;7.50;82.65;100971.38;5092507;28;20024;-64
2023/10/18 02:23:37;;;;;;;15.95;8.90;;;;;;;7.48;82.81;100971.44;5090305;28;20390;-64
2023/10/18 02:26:53;;;;;;;8.88;7.55;;;;;;;7.43;83.47;100976.06;5091780;28;20063;-65
2023/10/18 02:28:51;;;;;;;15.25;13.93;;;;;;;7.26;83.24;100973.38;5070848;28;20043;-64
2023/10/18 02:31:21;;;;;;;10.90;7.03;;;;;;;7.43;83.05;100977.88;5089552;28;20024;-64
2023/10/18 02:33:48;;;;;;;9.32;7.97;;;;;;;7.42;82.91;100970.88;5091733;28;20028;-64
2023/10/18 02:36:20;;;;;;;14.35;7.00;;;;;;;7.39;82.83;100963.94;5068443;28;20078;-64
2023/10/18 02:38:46;;;;;;;18.60;7.72;;;;;;;7.48;82.28;100973.22;5089796;28;20528;-64
2023/10/18 02:41:15;;;;;;;11.38;8.05;;;;;;;7.51;82.47;100970.44;5089330;28;20016;-64
2023/10/18 02:43:45;;;;;;;7.25;6.55;;;;;;;7.47;82.64;100964.44;5056916;28;20063;-64
2023/10/18 02:46:12;;;;;;;9.40;7.03;;;;;;;7.47;82.37;100960.91;5067935;28;20024;-65
2023/10/18 02:48:37;;;;;;;15.05;13.60;;;;;;;7.33;83.31;100952.81;5089276;28;20371;-64
2023/10/18 02:51:06;;;;;;;9.38;6.97;;;;;;;7.38;82.66;100946.34;5090579;28;20035;-64
2023/10/18 02:53:33;;;;;;;9.05;7.57;;;;;;;7.46;82.29;100948.63;5091949;28;20016;-64
2023/10/18 02:55:59;;;;;;;11.32;7.65;;;;;;;7.40;82.68;100943.63;5087003;28;20081;-63
2023/10/18 02:58:28;;;;;;;8.18;7.35;;;;;;;7.42;82.61;100947.91;5069801;28;20103;-65
2023/10/18 03:01:05;;;;;;;12.85;7.10;;;;;;;7.40;83.18;100944.47;5070479;28;20078;-65
2023/10/18 03:03:33;;;;;;;9.98;7.05;;;;;;;7.32;82.90;100919.31;5088245;28;20459;-64
2023/10/18 03:06:12;;;;;;;11.02;7.65;;;;;;;7.40;83.02;100939.19;5070163;28;20425;-64
2023/10/18 03:08:38;;;;;;;8.63;7.20;;;;;;;7.35;83.26;100935.91;5088411;28;20020;-64
2023/10/18 03:11:05;;;;;;;9.77;7.53;;;;;;;7.33;83.13;100931.63;5083299;28;20028;-64
2023/10/18 03:13:31;;;;;;;12.93;7.95;;;;;;;7.32;83.28;100919.31;5088333;28;20062;-64
2023/10/18 03:16:05;;;;;;;12.10;8.15;;;;;;;7.31;82.95;100923.75;5091211;28;20110;-64
2023/10/18 03:18:32;;;;;;;8.40;7.18;;;;;;;7.37;82.76;100927.91;5070770;28;20024;-64
2023/10/18 03:20:57;;;;;;;10.73;7.97;;;;;;;7.36;82.67;100907.66;5069873;28;20375;-64
2023/10/18 03:23:26;;;;;;;9.52;7.88;;;;;;;7.37;82.83;100917.31;5072879;28;20103;-64
2023/10/18 03:26:07;;;;;;;12.18;7.25;;;;;;;7.37;83.08;100920.81;5086994;28;20050;-64
2023/10/18 03:28:40;;;;;;;7.80;6.95;;;;;;;7.34;82.97;100913.03;5070172;28;20118;-64
2023/10/18 03:33:53;;;;;;;13.63;8.10;;;;;;;7.32;82.86;100906.09;5089940;28;20039;-64
2023/10/18 03:36:26;;;;;;;11.88;8.02;;;;;;;7.26;83.04;100908.13;5065483;28;20081;-64
2023/10/18 03:41:49;;;;;;;10.57;7.20;;;;;;;7.27;82.85;100893.09;5055448;28;20127;-64
2023/10/18 03:44:22;;;;;;;10.38;8.38;;;;;;;7.19;83.34;100874.09;5089982;28;20024;-64
2023/10/18 03:46:48;;;;;;;11.27;7.55;;;;;;;7.26;83.00;100879.03;5089921;28;20032;-64
2023/10/18 03:51:56;;;;;;;12.52;8.15;;;;;;;7.27;82.94;100872.78;5088984;28;20032;-64
2023/10/18 03:54:23;;;;;;;10.95;7.20;;;;;;;7.19;83.22;100864.38;5090580;28;20111;-64
2023/10/18 03:56:53;;;;;;;9.10;7.00;;;;;;;7.26;82.67;100859.63;5088800;28;20112;-64
2023/10/18 04:02:05;;;;;;;9.10;7.82;;;;;;;7.18;83.26;100856.53;5086237;28;19963;-64
2023/10/18 04:04:38;;;;;;;10.38;7.53;;;;;;;7.10;83.12;100850.75;5072593;28;21749;-64
2023/10/18 04:07:13;;;;;;;14.27;8.40;;;;;;;7.13;83.58;100848.81;5090513;28;20035;-64
2023/10/18 04:09:54;;;;;;;9.77;7.68;;;;;;;7.19;82.71;100855.59;5087720;28;20085;-65
2023/10/18 04:12:22;;;;;;;11.23;9.10;;;;;;;7.11;83.18;100848.00;5089064;28;20066;-64
2023/10/18 04:14:52;;;;;;;11.77;8.25;;;;;;;7.11;83.46;100852.44;5090521;28;20028;-64
2023/10/18 04:20:08;;;;;;;12.75;8.07;;;;;;;7.10;83.61;100838.38;5097353;28;20050;-65
2023/10/18 04:22:35;;;;;;;11.75;7.80;;;;;;;7.11;83.68;100840.06;5085994;28;20035;-64
2023/10/18 04:25:04;;;;;;;12.27;8.32;;;;;;;7.11;83.36;100831.28;5088459;28;20448;-64
2023/10/18 04:27:29;;;;;;;15.40;13.90;;;;;;;6.94;84.03;100811.84;5069253;28;20395;-64
2023/10/18 04:30:00;;;;;;;12.32;7.45;;;;;;;7.06;83.63;100823.59;5089314;28;20016;-64
2023/10/18 04:32:25;;;;;;;11.18;7.95;;;;;;;7.05;83.84;100822.72;5088102;28;20054;-65
2023/10/18 04:34:51;;;;;;;11.07;7.80;;;;;;;7.05;83.77;100822.72;5086242;28;20029;-64
2023/10/18 04:37:17;;;;;;;10.90;7.80;;;;;;;7.04;83.47;100818.38;5071411;28;20066;-64
2023/10/18 04:39:43;;;;;;;11.25;8.57;;;;;;;7.04;83.90;100814.88;5088632;28;20090;-64
2023/10/18 04:42:08;;;;;;;11.10;8.10;;;;;;;7.04;83.72;100813.09;5086387;28;20449;-65
2023/10/18 04:44:35;;;;;;;8.55;7.32;;;;;;;7.11;83.57;100816.28;5087634;28;20024;-64
2023/10/18 04:47:03;;;;;;;9.80;7.47;;;;;;;7.11;83.39;100821.56;5068398;28;20028;-65
2023/10/18 04:49:36;;;;;;;10.80;8.35;;;;;;;7.03;83.55;100803.44;5071444;28;20024;-64
2023/10/18 04:52:04;;;;;;;10.95;7.90;;;;;;;7.05;83.14;100809.50;5087281;28;20485;-65
2023/10/18 04:57:04;;;;;;;7.90;7.05;;;;;;;6.97;83.24;100797.56;5072838;28;20396;-64
2023/10/18 04:59:46;;;;;;;11.95;8.93;;;;;;;6.98;83.44;100791.38;5071254;28;20024;-65
2023/10/18 05:02:26;;;;;;;8.85;7.25;;;;;;;7.01;83.53;100788.59;5071192;28;20127;-64
2023/10/18 05:04:54;;;;;;;15.82;14.25;;;;;;;7.01;82.91;100785.94;5084400;28;20028;-64
2023/10/18 05:07:20;;;;;;;16.17;7.38;;;;;;;7.04;83.31;100783.13;5088767;28;20035;-64
2023/10/18 05:09:55;;;;;;;11.07;8.15;;;;;;;7.01;82.87;100773.56;5089319;28;20016;-64
2023/10/18 05:14:50;;;;;;;9.75;7.75;;;;;;;7.02;83.45;100780.56;5091653;28;20054;-64
2023/10/18 05:17:17;;;;;;;10.10;6.97;;;;;;;7.04;83.19;100772.56;5073438;28;20032;-64
2023/10/18 05:19:44;;;;;;;10.00;8.25;;;;;;;7.04;82.70;100767.28;5074328;28;20055;-64
2023/10/18 05:22:20;;;;;;;14.73;8.00;;;;;;;7.03;83.24;100760.28;5092417;28;20031;-65
2023/10/18 05:41:26;;;;;;;8.43;7.30;;;;;;;7.00;83.17;100748.06;5087841;28;20064;-65
2023/10/18 05:43:59;;;;;;;11.10;8.20;;;;;;;7.07;83.11;100758.34;5091805;28;20035;-64
2023/10/18 05:46:31;;;;;;;10.32;7.93;;;;;;;7.07;83.26;100758.34;5072322;28;20368;-64
2023/10/18 05:49:00;;;;;;;15.93;8.80;;;;;;;7.00;83.07;100753.34;5105972;28;20024;-65
2023/10/18 05:51:29;;;;;;;13.25;8.45;;;;;;;6.97;83.22;100745.59;5090646;28;20016;-65
2023/10/18 05:53:59;;;;;;;14.57;7.75;;;;;;;6.95;83.23;100738.66;5086255;28;20166;-64
2023/10/18 05:56:33;;;;;;;;;;;;;;;7.05;82.80;100747.81;5089315;28;20097;-64
2023/10/18 05:59:27;;;;;;;15.38;8.98;;;;;;;7.03;82.85;100742.63;5091329;28;19922;-64
2023/10/18 06:01:54;;;;;;;12.45;8.02;;;;;;;7.01;82.71;100741.84;5089429;28;20115;-64
2023/10/18 06:04:29;;;;;;;9.93;8.05;;;;;;;6.99;82.79;100740.19;5073400;28;20028;-64
2023/10/18 06:06:59;;;;;;;10.57;8.40;;;;;;;7.01;83.29;100747.13;5092820;28;20031;-65
2023/10/18 06:09:28;;;;;;;;;;;;;;;7.03;82.49;100739.13;5073704;28;20040;-64
2023/10/18 06:11:56;;;;;;;9.55;7.82;;;;;;;6.97;82.27;100742.06;5072722;28;19915;-65
2023/10/18 06:14:25;;;;;;;14.55;9.60;;;;;;;6.99;82.59;100730.47;5074389;28;20039;-65
2023/10/18 06:17:06;;;;;;;11.85;8.88;;;;;;;7.00;82.56;100726.91;5084598;28;20024;-65
2023/10/18 06:19:32;;;;;;;11.68;9.00;;;;;;;6.96;82.90;100720.06;5084795;28;20035;-65
2023/10/18 06:21:58;;;;;;;10.88;8.02;;;;;;;6.91;82.72;100708.88;5090915;28;20032;-64
2023/10/18 06:24:26;;;;;;;17.35;15.70;;;;;;;6.83;83.32;100709.25;5075488;28;20100;-64
2023/10/18 06:26:54;;;;;;;9.27;8.23;;;;;;;6.90;82.90;100709.78;5067472;28;20035;-64
2023/10/18 06:29:22;;;;;;;11.73;8.00;;;;;;;6.85;82.61;100698.56;5086620;28;20063;-64
2023/10/18 06:31:49;;;;;;;12.23;9.05;;;;;;;6.93;82.61;100707.00;5088256;28;20721;-64
2023/10/18 06:34:18;;;;;;;14.60;8.73;;;;;;;6.96;82.65;100709.47;5087587;28;20077;-64
2023/10/18 06:36:44;;;;;;;12.87;8.07;;;;;;;6.98;82.46;100696.19;5085679;28;20044;-64
2023/10/18 06:39:24;;;;;;;17.25;8.95;;;;;;;6.93;82.44;100693.75;5089738;28;20282;-64
2023/10/18 06:41:54;;;;;;;9.93;8.25;;;;;;;6.98;82.80;100698.84;5086728;28;20026;-65
2023/10/18 06:44:20;;;;;;;11.65;7.85;;;;;;;6.97;82.56;100697.09;5065732;28;20155;-65
2023/10/18 06:46:48;;;;;;;12.02;8.05;;;;;;;6.98;82.16;100694.41;5090434;28;20059;-65
2023/10/18 06:49:17;;;;;;;12.40;8.05;;;;;;;6.98;82.58;100693.56;5087949;28;21092;-65
2023/10/18 06:51:49;;;;;;;10.75;8.13;;;;;;;6.97;81.79;100681.25;5087768;28;20104;-64
2023/10/18 06:54:14;;;;;;;10.73;8.15;;;;;;;6.99;81.67;100687.31;5088790;28;20035;-65
2023/10/18 06:56:45;;;;;;;11.20;8.27;;;;;;;7.00;81.92;100678.44;5070943;28;20023;-64
2023/10/18 06:59:13;;;;;;;13.55;8.18;;;;;;;7.02;81.69;100677.44;5091756;28;20032;-64
2023/10/18 07:01:54;;;;;;;11.05;8.15;;;;;;;6.99;81.77;100669.66;5073277;28;20036;-64
2023/10/18 07:04:27;;;;;;;11.82;7.93;;;;;;;6.99;82.03;100666.16;5090079;28;20051;-64
2023/10/18 07:06:54;;;;;;;11.35;8.48;;;;;;;7.07;81.39;100674.56;5089893;28;20032;-64
2023/10/18 07:09:25;;;;;;;12.90;8.27;;;;;;;7.08;81.89;100670.13;5068286;28;20028;-64
2023/10/18 07:11:57;;;;;;;13.23;7.78;;;;;;;7.07;81.70;100671.94;5084987;28;20024;-64
2023/10/18 07:14:24;;;;;;;11.63;7.80;;;;;;;7.12;81.47;100666.38;5091591;28;20094;-64
2023/10/18 07:16:54;;;;;;;11.95;8.20;;;;;;;7.18;81.24;100666.09;5091666;28;20103;-64
2023/10/18 07:19:26;;;;;;;11.88;8.43;;;;;;;7.20;80.83;100659.75;5090301;28;20032;-64
2023/10/18 07:21:55;;;;;;;13.07;7.88;;;;;;;7.21;80.87;100650.91;5069894;28;20028;-65
2023/10/18 07:24:21;;;;;;;11.88;8.32;;;;;;;7.25;80.44;100649.81;5089949;28;20040;-64
2023/10/18 07:26:47;;;;;;;15.63;7.70;;;;;;;7.31;80.26;100647.78;5086786;28;20495;-64
2023/10/18 07:29:14;;;;;;;14.85;7.65;;;;;;;7.28;81.40;100635.56;5088885;28;20028;-64
2023/10/18 07:31:44;;;;;;;14.90;8.30;;;;;;;7.33;80.72;100646.75;5090558;28;20016;-64
2023/10/18 07:34:17;;;;;;;10.63;8.18;;;;;;;7.30;80.51;100639.00;5071134;28;20494;-64
2023/10/18 07:36:44;;;;;;;13.32;8.40;;;;;;;7.41;80.55;100643.69;5086920;28;20052;-65
2023/10/18 07:39:16;;;;;;;11.82;7.57;;;;;;;7.45;79.48;100640.81;5087759;28;20445;-64
2023/10/18 07:41:42;;;;;;;10.75;8.30;;;;;;;7.45;79.02;100632.03;5071724;28;20024;-65
2023/10/18 07:44:07;;;;;;;8.73;7.57;;;;;;;7.43;79.99;100628.59;5088700;28;20031;-64
2023/10/18 07:46:34;;;;;;;10.60;7.93;;;;;;;7.50;79.39;100638.78;5052695;28;20024;-65
2023/10/18 07:49:11;;;;;;;16.05;14.55;;;;;;;7.48;79.73;100632.72;5087921;28;20115;-65
2023/10/18 07:51:43;;;;;;;10.70;8.15;;;;;;;7.58;79.41;100619.81;5072186;28;20016;-64
2023/10/18 07:54:09;;;;;;;13.93;7.95;;;;;;;7.62;79.16;100618.75;5090212;28;20028;-64
2023/10/18 07:56:40;;;;;;;11.35;7.55;;;;;;;7.65;78.53;100623.03;5089550;28;20027;-64
2023/10/18 08:02:07;;;;;;;7.15;6.43;;;;;;;7.73;78.15;100615.50;5089461;28;20050;-64
2023/10/18 08:04:36;;;;;;;10.45;8.70;;;;;;;7.76;78.41;100614.47;5072547;28;20039;-65
2023/10/18 08:07:10;;;;;;;16.00;7.88;;;;;;;7.80;78.26;100613.38;5090165;28;20028;-64
2023/10/18 08:09:43;;;;;;;15.75;10.02;;;;;;;7.89;78.69;100616.38;5089275;28;20023;-64
2023/10/18 08:12:43;;;;;;;12.20;8.75;;;;;;;8.01;78.39;100619.28;5090570;28;20028;-64
2023/10/18 08:15:13;;;;;;;10.48;8.88;;;;;;;8.03;77.67;100615.59;5088304;28;20044;-65
2023/10/18 08:17:46;;;;;;;12.63;7.90;;;;;;;8.14;78.32;100599.09;5090159;28;20391;-64
2023/10/18 08:22:47;;;;;;;10.63;8.10;;;;;;;8.16;77.00;100584.81;5089954;28;20063;-64
2023/10/18 08:25:29;;;;;;;10.27;7.57;;;;;;;8.27;76.78;100588.66;5086876;28;20020;-64
2023/10/18 08:27:56;;;;;;;15.68;8.95;;;;;;;8.30;76.84;100586.69;5090052;28;20455;-63
2023/10/18 08:30:38;;;;;;;14.13;8.32;;;;;;;8.34;76.36;100588.19;5089852;28;20028;-64
2023/10/18 08:33:05;;;;;;;23.27;8.25;;;;;;;8.36;75.94;100583.66;5090334;28;20115;-63
2023/10/18 08:35:31;;;;;;;11.45;8.07;;;;;;;8.41;76.32;100581.66;5072171;28;20035;-64
2023/10/18 08:38:01;;;;;;;13.32;7.78;;;;;;;8.45;76.48;100576.16;5086037;28;20092;-64
2023/10/18 08:43:28;;;;;;;14.60;7.90;;;;;;;8.52;77.41;100573.03;5086739;28;20129;-63
2023/10/18 08:46:05;;;;;;;11.82;7.63;;;;;;;8.55;76.32;100575.50;5088034;28;20488;-63
2023/10/18 08:48:38;;;;;;;13.23;8.30;;;;;;;8.59;75.84;100573.56;5089232;28;20156;-64
2023/10/18 08:51:05;;;;;;;12.25;7.15;;;;;;;8.64;76.21;100574.13;5073711;28;20400;-64
2023/10/18 08:53:33;;;;;;;12.63;7.78;;;;;;;8.71;76.17;100567.53;5093647;28;20024;-63
2023/10/18 08:56:05;;;;;;;11.50;8.52;;;;;;;8.73;75.86;100559.47;5092990;28;20047;-63
2023/10/18 08:58:33;;;;;;;12.95;8.32;;;;;;;8.80;75.75;100548.41;5094670;28;20040;-63
2023/10/18 09:03:29;;;;;;;14.95;13.35;;;;;;;8.99;75.69;100547.28;5087881;28;20075;-63
2023/10/18 09:06:05;;;;;;;8.85;7.75;;;;;;;9.10;74.73;100545.66;5071712;28;20486;-63
2023/10/18 09:08:44;;;;;;;8.30;7.50;;;;;;;9.15;74.72;100536.56;5094818;28;20030;-64
2023/10/18 09:11:21;;;;;;;9.68;7.75;;;;;;;9.28;74.43;100548.13;5091533;28;20020;-63
2023/10/18 09:16:40;;;;;;;11.68;7.15;;;;;;;9.43;73.17;100533.03;5102068;28;20047;-63
2023/10/18 09:19:09;;;;;;;11.93;7.28;;;;;;;9.49;73.75;100524.69;5095747;28;20016;-63
2023/10/18 09:24:23;;;;;;;12.30;6.72;;;;;;;9.64;72.24;100517.53;5087229;28;20165;-64
2023/10/18 09:26:50;;;;;;;13.45;6.97;;;;;;;9.72;72.36;100512.59;5090656;28;20118;-64
2023/10/18 09:29:17;;;;;;;10.95;7.35;;;;;;;9.79;72.34;100508.56;5069288;28;20031;-64
2023/10/18 09:31:52;;;;;;;12.73;11.57;;;;;;;9.85;72.80;100512.63;5086395;28;20031;-64
2023/10/18 09:34:18;;;;;;;12.52;11.23;;;;;;;9.86;71.18;100511.69;5091874;28;20024;-64
2023/10/18 09:36:55;;;;;;;9.23;7.18;;;;;;;9.97;71.50;100501.19;5091277;28;20034;-64
2023/10/18 09:39:21;;;;;;;9.70;6.78;;;;;;;10.09;71.70;100496.88;5091293;28;20024;-64
2023/10/18 09:41:47;;;;;;;14.18;7.40;;;;;;;10.21;71.37;100490.75;5075237;28;20031;-64
2023/10/18 09:44:13;;;;;;;8.73;6.90;;;;;;;10.33;71.15;100475.81;5055780;28;20028;-64
2023/10/18 09:46:38;;;;;;;8.02;6.28;;;;;;;10.41;71.00;100481.44;5085130;28;20109;-64
2023/10/18 09:49:09;;;;;;;12.43;11.35;;;;;;;10.43;70.56;100471.56;5092545;28;20027;-64
2023/10/18 09:51:42;;;;;;;13.27;11.95;;;;;;;10.55;70.35;100470.72;5080806;28;20548;-64
2023/10/18 09:54:13;;;;;;;11.93;10.75;;;;;;;10.61;69.51;100462.31;5090553;28;20103;-64
2023/10/18 09:56:40;;;;;;;9.07;7.05;;;;;;;10.81;69.89;100460.06;5092258;28;20032;-64
2023/10/18 09:59:11;;;;;;;10.07;6.78;;;;;;;10.93;69.77;100459.19;5093340;28;20063;-63
2023/10/18 10:04:14;;;;;;;12.48;11.27;;;;;;;11.01;68.37;100440.88;5092628;28;20039;-64
2023/10/18 10:06:45;;;;;;;12.40;11.10;;;;;;;11.06;67.62;100451.19;5087329;28;20024;-64
2023/10/18 10:09:12;;;;;;;8.50;6.32;;;;;;;11.32;68.07;100430.69;5091981;28;20027;-64
2023/10/18 10:11:45;;;;;;;10.70;6.90;;;;;;;11.53;66.66;100444.22;5074175;28;20024;-64
2023/10/18 10:14:21;;;;;;;12.40;7.28;;;;;;;11.68;67.41;100428.97;5069728;28;20451;-64
2023/10/18 10:16:56;;;;;;;9.30;7.35;;;;;;;11.79;66.64;100419.19;5092986;28;20036;-64
2023/10/18 10:19:28;;;;;;;14.80;11.65;;;;;;;11.86;65.31;100414.28;5071847;28;20032;-64
2023/10/18 10:21:55;;;;;;;11.82;10.77;;;;;;;12.00;65.17;100406.09;5072627;28;20371;-64
2023/10/18 10:24:30;;;;;;;10.73;6.32;;;;;;;12.33;65.28;100395.63;5086081;28;20036;-64
2023/10/18 10:27:28;;;;;;;10.90;7.07;;;;;;;12.41;64.80;100399.38;5077493;28;20027;-64
2023/10/18 10:30:02;;;;;;;11.20;6.70;;;;;;;12.54;64.56;100406.44;5031412;28;20028;-64
2023/10/18 10:32:28;;;;;;;13.13;6.53;;;;;;;12.75;62.59;100395.88;5079386;28;20028;-64
2023/10/18 10:35:16;;;;;;;11.02;10.00;;;;;;;12.81;63.33;100398.91;5085005;28;20081;-64
2023/10/18 10:38:18;;;;;;;10.95;9.95;;;;;;;12.92;63.19;100374.03;5093406;28;20317;-64
2023/10/18 10:41:04;;;;;;;8.93;6.85;;;;;;;13.30;62.45;100376.28;5066368;28;20051;-65
2023/10/18 10:44:08;;;;;;;8.60;6.10;;;;;;;13.30;61.60;100357.59;5085021;28;20360;-65
2023/10/18 10:46:41;;;;;;;11.45;10.07;;;;;;;13.03;61.19;100367.81;5103619;28;20027;-64
2023/10/18 10:49:44;;;;;;;10.88;9.38;;;;;;;13.45;62.66;100359.97;5059516;28;20063;-65
2023/10/18 10:52:10;;;;;;;11.82;9.77;;;;;;;13.50;61.89;100345.25;5087579;28;20064;-64
2023/10/18 10:54:39;;;;;;;10.95;9.85;;;;;;;13.85;60.79;100354.78;5089014;28;20047;-64
2023/10/18 10:57:08;;;;;;;10.93;9.50;;;;;;;13.94;58.80;100335.31;5089308;28;20028;-64
2023/10/18 10:59:41;;;;;;;13.13;9.35;;;;;;;14.16;59.49;100345.00;5090802;28;20032;-64
2023/10/18 11:02:09;;;;;;;10.30;9.40;;;;;;;14.26;58.46;100337.84;5087635;28;20503;-64
2023/10/18 11:04:57;;;;;;;12.05;9.15;;;;;;;14.49;58.45;100330.50;5089985;28;20397;-65
2023/10/18 11:07:25;;;;;;;10.63;9.52;;;;;;;14.65;57.49;100318.50;5092078;28;20494;-65
2023/10/18 11:10:04;;;;;;;11.32;9.32;;;;;;;14.93;56.29;100320.38;5092089;28;20024;-64
2023/10/18 11:12:33;;;;;;;13.15;9.65;;;;;;;15.39;55.98;100301.97;5086386;28;20462;-64
2023/10/18 11:15:00;;;;;;;12.17;9.13;;;;;;;15.72;53.70;100310.59;5091235;28;20016;-64
2023/10/18 11:17:27;;;;;;;11.13;8.80;;;;;;;15.66;53.21;100309.28;5091585;28;20031;-64
2023/10/18 11:19:59;;;;;;;12.27;9.75;;;;;;;15.81;53.77;100299.00;5091213;28;20072;-64
2023/10/18 11:22:29;;;;;;;10.00;8.07;;;;;;;16.12;52.94;100292.41;5073272;28;20020;-65
2023/10/18 11:24:55;;;;;;;9.45;8.50;;;;;;;16.07;52.48;100286.63;5092093;28;20467;-64
2023/10/18 11:27:25;;;;;;;9.60;8.60;;;;;;;15.84;52.50;100290.66;5092265;28;20028;-64
2023/10/18 11:29:55;;;;;;;10.48;8.48;;;;;;;16.01;53.20;100286.38;5092397;28;20016;-64
2023/10/18 11:32:27;;;;;;;13.95;9.38;;;;;;;16.29;52.29;100273.84;5092101;28;20371;-65
2023/10/18 11:35:10;;;;;;;15.73;8.80;;;;;;;16.53;52.32;100270.63;5092437;28;20016;-64
2023/10/18 11:37:40;;;;;;;10.75;9.23;;;;;;;16.44;51.25;100280.44;5092374;28;20378;-64
2023/10/18 11:40:15;;;;;;;11.13;8.23;;;;;;;16.89;52.33;100268.88;5091076;28;20557;-64
2023/10/18 11:43:10;;;;;;;11.82;8.35;;;;;;;17.31;51.12;100254.00;5092368;28;20030;-65
2023/10/18 11:45:40;;;;;;;10.02;8.90;;;;;;;17.26;49.21;100249.06;5092043;28;20470;-64
2023/10/18 11:48:14;;;;;;;8.98;8.05;;;;;;;17.23;49.55;100234.09;5074020;28;20493;-64
2023/10/18 11:50:41;;;;;;;9.55;8.55;;;;;;;17.40;48.17;100227.03;5091952;28;20035;-64
2023/10/18 11:53:08;;;;;;;14.05;8.20;;;;;;;17.45;49.08;100230.09;5092239;28;20051;-64
2023/10/18 11:55:51;;;;;;;9.25;8.18;;;;;;;17.42;48.14;100230.41;5073422;28;20028;-65
2023/10/18 11:58:17;;;;;;;8.50;7.68;;;;;;;17.32;48.38;100220.72;5092014;28;20173;-64
2023/10/18 12:00:47;;;;;;;10.73;7.85;;;;;;;17.15;48.55;100211.72;5091746;28;20698;-64
2023/10/18 12:03:13;;;;;;;10.70;8.43;;;;;;;17.03;50.00;100208.41;5091773;28;20052;-64
2023/10/18 12:05:44;;;;;;;9.50;8.43;;;;;;;17.33;48.40;100217.06;5073915;28;20074;-64
2023/10/18 12:08:13;;;;;;;8.40;7.60;;;;;;;17.32;48.32;100201.91;5091955;28;20020;-64
2023/10/18 12:10:39;;;;;;;9.98;8.63;;;;;;;17.17;49.57;100204.31;5072858;28;20055;-65
2023/10/18 12:13:14;;;;;;;11.95;8.77;;;;;;;16.80;49.62;100182.00;5091780;28;20074;-64
2023/10/18 12:15:40;;;;;;;9.40;7.72;;;;;;;16.85;49.25;100176.16;5072979;28;20066;-64
2023/10/18 12:18:05;;;;;;;9.75;8.57;;;;;;;16.91;49.12;100158.59;5073778;28;20051;-64
2023/10/18 12:20:37;;;;;;;9.00;8.20;;;;;;;17.11;49.24;100160.09;5091381;28;20024;-64
2023/10/18 12:23:18;;;;;;;10.38;7.60;;;;;;;16.94;51.04;100161.84;5091787;28;20023;-64
2023/10/18 12:25:44;;;;;;;11.30;8.02;;;;;;;16.75;49.74;100167.31;5091180;28;20028;-65
2023/10/18 12:28:18;;;;;;;18.73;8.68;;;;;;;16.78;49.90;100159.81;5091469;28;20032;-64
2023/10/18 12:30:45;;;;;;;11.10;7.82;;;;;;;16.80;51.59;100160.53;5091218;28;20091;-64
2023/10/18 12:33:33;;;;;;;9.30;8.40;;;;;;;17.19;48.91;100157.47;5091526;28;20028;-65
2023/10/18 12:36:00;;;;;;;9.95;8.32;;;;;;;17.49;48.14;100149.94;5091691;28;20020;-64